Time;durP1;ratioP1;P1;durP2;ratioP2;P2;SDS_P1;SDS_P2;PMS_P1;PMS_P2;Temp;Humidity;BMP_temperature;BMP_pressure;BME280_temperature;BME280_humidity;BME280_pressure;Samples;Min_cycle;Max_cycle;Signal;HPM_P1;HPM_P2
2022/08/12 00:43:45;;;;;;;3.08;0.70;;;27.40;51.20;;;;;;5053549;28;20032;-74
2022/08/12 00:48:56;;;;;;;3.22;0.80;;;27.20;51.40;;;;;;5053401;28;20032;-75
2022/08/12 00:52:04;;;;;;;1.05;0.63;;;27.20;51.60;;;;;;5052720;28;20037;-74
2022/08/12 00:54:09;;;;;;;1.67;0.65;;;27.20;51.60;;;;;;5052996;28;20056;-74
2022/08/12 00:56:38;;;;;;;14.30;1.02;;;27.30;51.60;;;;;;5052906;28;20060;-74
2022/08/12 00:59:04;;;;;;;2.85;0.63;;;27.30;51.80;;;;;;5053269;28;20021;-74
2022/08/12 01:01:32;;;;;;;4.50;0.65;;;27.30;51.80;;;;;;5053140;28;20079;-74
2022/08/12 01:12:13;;;;;;;3.28;1.17;;;27.20;52.20;;;;;;5053052;28;20040;-74
2022/08/12 01:14:40;;;;;;;2.95;0.65;;;27.00;52.50;;;;;;5053127;28;20032;-74
2022/08/12 01:17:06;;;;;;;0.90;0.60;;;26.90;52.80;;;;;;5052866;28;20040;-74
2022/08/12 01:19:32;;;;;;;4.60;0.82;;;26.90;52.80;;;;;;5052854;28;20021;-74
2022/08/12 01:22:24;;;;;;;3.03;0.80;;;26.80;53.10;;;;;;5053115;28;20017;-74
2022/08/12 01:25:01;;;;;;;2.75;1.10;;;26.70;53.50;;;;;;5050097;28;20458;-74
2022/08/12 01:27:29;;;;;;;1.45;0.75;;;26.50;53.60;;;;;;5052850;28;20087;-74
2022/08/12 01:29:56;;;;;;;2.38;0.70;;;26.50;53.60;;;;;;5052624;28;20472;-74
2022/08/12 01:32:25;;;;;;;2.88;0.80;;;26.50;54.20;;;;;;5052883;28;20044;-74
2022/08/12 01:35:00;;;;;;;3.42;1.15;;;26.30;54.40;;;;;;5052467;28;20487;-74
2022/08/12 01:37:29;;;;;;;6.47;0.90;;;26.30;54.60;;;;;;5052663;28;20057;-74
2022/08/12 01:39:57;;;;;;;2.53;0.80;;;26.20;54.70;;;;;;5052963;28;20373;-74
2022/08/12 01:42:25;;;;;;;1.67;0.70;;;26.20;54.80;;;;;;5052520;28;20021;-74
2022/08/12 01:44:54;;;;;;;2.15;0.85;;;26.20;55.00;;;;;;5052899;28;20428;-74
2022/08/12 01:47:51;;;;;;;2.25;0.80;;;26.10;55.50;;;;;;5055311;28;20021;-74
2022/08/12 01:50:55;;;;;;;4.05;0.93;;;26.00;55.60;;;;;;5056302;28;20025;-74
2022/08/12 01:53:24;;;;;;;3.10;0.98;;;26.00;55.60;;;;;;5056524;28;20021;-74
2022/08/12 01:55:52;;;;;;;2.55;1.00;;;25.90;55.80;;;;;;5056195;28;20141;-74
2022/08/12 02:01:19;;;;;;;2.28;1.10;;;25.70;56.50;;;;;;5056434;28;20064;-74
2022/08/12 02:13:32;;;;;;;3.67;0.90;;;25.70;56.50;;;;;;5055984;28;20064;-74
2022/08/12 02:16:26;;;;;;;7.20;0.80;;;25.80;56.30;;;;;;5056186;28;20029;-74
2022/08/12 02:19:26;;;;;;;3.60;0.80;;;25.90;56.10;;;;;;5055696;28;20053;-74
2022/08/12 02:22:03;;;;;;;1.80;0.80;;;26.00;56.00;;;;;;5055724;28;20082;-74
2022/08/12 02:24:32;;;;;;;4.43;1.42;;;26.00;55.80;;;;;;5055735;28;20064;-74
2022/08/12 02:26:59;;;;;;;2.38;0.85;;;26.00;55.70;;;;;;5055447;28;20472;-74
2022/08/12 02:29:25;;;;;;;2.15;0.80;;;26.10;55.70;;;;;;5055594;28;20051;-74
2022/08/12 02:31:52;;;;;;;1.95;0.80;;;26.10;55.70;;;;;;5055571;28;20043;-74
2022/08/12 02:34:19;;;;;;;3.10;0.80;;;26.10;55.70;;;;;;5055673;28;20021;-74
2022/08/12 02:36:44;;;;;;;2.08;0.80;;;26.10;55.80;;;;;;5055430;28;20476;-74
2022/08/12 02:39:14;;;;;;;4.63;0.90;;;26.10;55.70;;;;;;5055776;28;20102;-74
2022/08/12 02:41:45;;;;;;;3.40;0.80;;;26.20;55.80;;;;;;5055351;28;20147;-74
2022/08/12 02:44:14;;;;;;;2.85;0.60;;;26.10;55.80;;;;;;5055273;28;20506;-75
2022/08/12 02:46:42;;;;;;;1.67;0.80;;;26.10;55.80;;;;;;5055015;28;20055;-74
2022/08/12 02:49:33;;;;;;;2.25;0.82;;;26.10;55.90;;;;;;5055480;28;20055;-74
2022/08/12 02:51:59;;;;;;;1.67;0.65;;;26.10;55.80;;;;;;5055354;28;20130;-74
2022/08/12 02:54:26;;;;;;;3.35;0.98;;;26.20;55.80;;;;;;5055078;28;20515;-74
2022/08/12 02:56:53;;;;;;;3.55;0.90;;;26.20;55.60;;;;;;5055100;28;20075;-74
2022/08/12 02:59:21;;;;;;;1.45;0.98;;;26.20;55.70;;;;;;5054255;28;20032;-74
2022/08/12 03:01:54;;;;;;;3.05;1.13;;;26.00;56.00;;;;;;5055221;28;20055;-74
2022/08/12 03:04:39;;;;;;;3.28;1.02;;;25.90;56.10;;;;;;5054998;28;20502;-74
2022/08/12 03:07:09;;;;;;;4.10;0.98;;;25.80;57.00;;;;;;5055092;28;20032;-74
2022/08/12 03:09:44;;;;;;;4.97;0.93;;;25.60;56.60;;;;;;5054862;28;20027;-74
2022/08/12 03:12:11;;;;;;;2.65;0.93;;;25.60;56.80;;;;;;5054466;28;20511;-74
2022/08/12 03:14:44;;;;;;;4.32;1.17;;;25.40;57.10;;;;;;5054949;28;20086;-74
2022/08/12 03:17:16;;;;;;;1.98;0.98;;;25.30;57.30;;;;;;5055021;28;20379;-74
2022/08/12 03:19:44;;;;;;;1.60;0.80;;;25.20;57.20;;;;;;5054661;28;20025;-74
2022/08/12 03:22:14;;;;;;;1.55;0.90;;;25.30;57.80;;;;;;5054865;28;20353;-74
2022/08/12 03:24:44;;;;;;;4.13;1.20;;;25.30;56.90;;;;;;5054280;28;20520;-74
2022/08/12 03:27:12;;;;;;;4.13;1.20;;;25.40;56.90;;;;;;5054519;28;20036;-74
2022/08/12 03:29:38;;;;;;;1.80;0.80;;;25.30;56.90;;;;;;5054647;28;20120;-74
2022/08/12 03:32:04;;;;;;;2.92;0.70;;;25.40;56.70;;;;;;5054409;28;20033;-74
2022/08/12 03:34:34;;;;;;;2.08;0.70;;;25.50;56.50;;;;;;5054649;28;20025;-74
2022/08/12 03:37:01;;;;;;;2.83;0.90;;;25.60;56.20;;;;;;5054411;28;20380;-74
2022/08/12 03:42:24;;;;;;;3.63;0.73;;;25.70;55.90;;;;;;5054278;28;20380;-74
2022/08/12 04:01:55;;;;;;;4.80;0.80;;;25.80;55.80;;;;;;5054099;28;20132;-74
2022/08/12 04:04:25;;;;;;;2.65;0.98;;;25.80;55.80;;;;;;5053808;28;20023;-74
2022/08/12 04:06:52;;;;;;;1.20;0.60;;;25.80;55.60;;;;;;5053510;28;20041;-74
2022/08/12 04:09:21;;;;;;;3.40;0.77;;;25.90;55.70;;;;;;5053811;28;20029;-74
2022/08/12 04:14:33;;;;;;;5.18;0.80;;;25.80;55.60;;;;;;5053823;28;20135;-74
2022/08/12 04:17:00;;;;;;;1.80;0.77;;;25.60;55.80;;;;;;5053543;28;20530;-74
2022/08/12 04:19:26;;;;;;;2.55;1.35;;;25.60;55.90;;;;;;5053501;28;20075;-74
2022/08/12 04:21:54;;;;;;;3.20;0.90;;;25.60;55.90;;;;;;5053845;28;20077;-74
2022/08/12 04:24:23;;;;;;;3.80;1.55;;;25.60;55.90;;;;;;5053355;28;20080;-74
2022/08/12 04:26:49;;;;;;;7.20;1.13;;;25.60;56.00;;;;;;5053650;28;20143;-74
2022/08/12 04:29:14;;;;;;;3.70;1.27;;;25.50;56.00;;;;;;5053357;28;20689;-74
2022/08/12 04:31:42;;;;;;;3.22;1.08;;;25.50;56.00;;;;;;5053610;28;20389;-74
2022/08/12 04:34:10;;;;;;;4.40;1.25;;;25.60;56.00;;;;;;5053082;28;20057;-74
2022/08/12 04:36:40;;;;;;;3.17;1.33;;;25.50;55.80;;;;;;5053419;28;20029;-74
2022/08/12 04:39:08;;;;;;;5.32;1.00;;;25.50;55.70;;;;;;5053530;28;20017;-74
2022/08/12 04:41:34;;;;;;;3.92;1.02;;;25.40;55.90;;;;;;5053214;28;20091;-74
2022/08/12 04:44:00;;;;;;;3.33;1.05;;;25.40;56.70;;;;;;5053394;28;20067;-74
2022/08/12 04:46:26;;;;;;;1.30;1.08;;;25.40;56.00;;;;;;5052940;28;20034;-74
2022/08/12 04:48:53;;;;;;;1.65;0.90;;;25.40;56.00;;;;;;5052982;28;20021;-74
2022/08/12 04:51:20;;;;;;;1.60;0.88;;;25.50;55.90;;;;;;5052978;28;20036;-74
2022/08/12 04:53:46;;;;;;;2.47;1.15;;;25.50;55.80;;;;;;5053047;28;20025;-74
2022/08/12 04:56:12;;;;;;;3.50;1.00;;;25.40;55.60;;;;;;5053281;28;20083;-74
2022/08/12 04:58:39;;;;;;;3.90;0.93;;;25.40;55.60;;;;;;5053074;28;20033;-74
2022/08/12 05:01:06;;;;;;;4.15;1.10;;;25.40;55.70;;;;;;5053200;28;20068;-74
2022/08/12 05:03:32;;;;;;;2.13;1.08;;;25.50;55.70;;;;;;5053123;28;20376;-73
2022/08/12 05:05:57;;;;;;;3.85;1.27;;;25.40;55.40;;;;;;5053098;28;20025;-74
2022/08/12 05:08:25;;;;;;;3.75;1.00;;;25.40;55.30;;;;;;5053247;28;20021;-74
2022/08/12 05:10:51;;;;;;;2.63;1.30;;;25.40;55.40;;;;;;5052803;28;20044;-74
2022/08/12 05:13:23;;;;;;;5.07;1.23;;;25.30;55.30;;;;;;5052769;28;20021;-74
2022/08/12 05:15:49;;;;;;;1.88;1.20;;;25.20;55.50;;;;;;5053105;28;20099;-74
2022/08/12 05:18:15;;;;;;;3.50;1.20;;;25.20;55.60;;;;;;5052872;28;20031;-74
2022/08/12 05:20:44;;;;;;;6.53;1.40;;;25.10;55.60;;;;;;5052758;28;20032;-74
2022/08/12 05:23:18;;;;;;;3.40;1.30;;;25.10;55.70;;;;;;5056951;28;20029;-73
2022/08/12 05:25:45;;;;;;;6.18;1.23;;;25.00;55.90;;;;;;5056985;28;20036;-74
2022/08/12 05:28:12;;;;;;;4.47;1.20;;;25.00;56.10;;;;;;5056919;28;20060;-74
2022/08/12 05:30:38;;;;;;;6.97;1.88;;;24.90;56.10;;;;;;5056563;28;20082;-74
2022/08/12 05:33:05;;;;;;;6.57;1.52;;;24.70;56.60;;;;;;5056689;28;20396;-74
2022/08/12 05:35:35;;;;;;;4.65;1.15;;;24.60;56.80;;;;;;5056584;28;20021;-74
2022/08/12 05:38:55;;;;;;;5.38;1.30;;;24.50;57.10;;;;;;5056580;28;20029;-74
2022/08/12 05:40:49;;;;;;;3.55;1.30;;;24.60;57.00;;;;;;5056367;28;20115;-74
2022/08/12 05:43:14;;;;;;;5.20;1.40;;;24.60;57.00;;;;;;5056627;28;20075;-74
2022/08/12 05:45:40;;;;;;;2.47;1.38;;;24.60;57.00;;;;;;5056356;28;20025;-74
2022/08/12 05:48:06;;;;;;;4.93;1.50;;;24.60;56.80;;;;;;5056316;28;20116;-74
2022/08/12 05:50:34;;;;;;;4.05;1.27;;;24.60;56.90;;;;;;5056206;28;20539;-74
2022/08/12 05:53:01;;;;;;;6.10;1.00;;;24.60;57.00;;;;;;5056465;28;20033;-74
2022/08/12 05:55:27;;;;;;;1.50;1.13;;;24.70;57.00;;;;;;5056057;28;20021;-74
2022/08/12 05:57:54;;;;;;;2.70;1.67;;;24.60;57.10;;;;;;5056295;28;20021;-74
2022/08/12 06:00:28;;;;;;;2.92;1.42;;;24.60;57.20;;;;;;5056116;28;20052;-74
2022/08/12 06:02:59;;;;;;;5.18;1.70;;;24.60;57.00;;;;;;5055974;28;20108;-74
2022/08/12 06:05:35;;;;;;;5.07;1.40;;;24.70;56.90;;;;;;5056365;28;20404;-74
2022/08/12 06:08:06;;;;;;;4.95;1.70;;;24.80;56.80;;;;;;5056016;28;20040;-74
2022/08/12 06:10:33;;;;;;;3.42;1.35;;;24.80;56.50;;;;;;5055805;28;20021;-74
2022/08/12 06:13:01;;;;;;;8.02;1.70;;;24.80;56.60;;;;;;5055749;28;20400;-74
2022/08/12 06:15:27;;;;;;;4.35;1.80;;;24.80;56.80;;;;;;5055499;28;20051;-74
2022/08/12 06:17:53;;;;;;;5.93;1.90;;;24.70;56.80;;;;;;5055457;28;20472;-74
2022/08/12 06:20:18;;;;;;;2.50;1.63;;;24.70;56.70;;;;;;5055880;28;20044;-74
2022/08/12 06:22:46;;;;;;;2.90;1.33;;;24.80;56.50;;;;;;5055553;28;20025;-74
2022/08/12 06:25:17;;;;;;;4.63;1.92;;;25.00;56.40;;;;;;5055423;28;20044;-74
2022/08/12 06:27:47;;;;;;;5.57;1.52;;;25.00;56.10;;;;;;5055312;28;20029;-74
2022/08/12 06:30:14;;;;;;;3.42;1.38;;;25.00;56.00;;;;;;5055474;28;20480;-74
2022/08/12 06:32:42;;;;;;;5.50;1.73;;;25.00;56.10;;;;;;5054445;28;20074;-74
2022/08/12 06:35:10;;;;;;;5.47;2.00;;;25.00;55.90;;;;;;5055403;28;20101;-74
2022/08/12 06:37:50;;;;;;;7.15;1.83;;;25.10;55.40;;;;;;5055387;28;20484;-74
2022/08/12 06:42:46;;;;;;;8.32;1.88;;;25.10;55.40;;;;;;5055387;28;20033;-74
2022/08/12 06:43:06;;;;;;;7.60;2.13;;;25.20;55.30;;;;;;5055381;28;20427;-74
2022/08/12 06:45:32;;;;;;;5.25;1.85;;;25.30;55.20;;;;;;5055242;28;20025;-74
2022/08/12 06:48:07;;;;;;;5.97;2.00;;;25.40;55.60;;;;;;5055137;28;20417;-74
2022/08/12 06:50:33;;;;;;;4.32;2.10;;;25.40;55.10;;;;;;5055096;28;20464;-74
2022/08/12 06:52:59;;;;;;;5.70;1.75;;;25.50;55.20;;;;;;5055177;28;20091;-74
2022/08/12 06:55:25;;;;;;;7.85;2.13;;;25.60;55.00;;;;;;5055288;28;20105;-74
2022/08/12 06:57:54;;;;;;;5.10;2.30;;;25.70;54.80;;;;;;5054718;28;20115;-75
2022/08/12 07:00:25;;;;;;;6.18;2.35;;;25.80;54.80;;;;;;5055247;28;20032;-74
2022/08/12 07:02:54;;;;;;;4.97;2.13;;;25.90;54.30;;;;;;5054924;28;20469;-74
2022/08/12 07:05:23;;;;;;;5.10;2.35;;;26.00;54.50;;;;;;5055099;28;20041;-74
2022/08/12 07:07:51;;;;;;;5.35;2.58;;;26.00;54.50;;;;;;5054687;28;20033;-74
2022/08/12 07:10:18;;;;;;;5.53;2.15;;;26.00;54.30;;;;;;5054964;28;20041;-74
2022/08/12 07:12:44;;;;;;;6.97;2.10;;;26.00;53.80;;;;;;5054841;28;20104;-74
2022/08/12 07:15:10;;;;;;;6.18;1.95;;;26.10;54.60;;;;;;5054579;28;20103;-74
2022/08/12 07:17:39;;;;;;;7.93;2.00;;;26.20;53.90;;;;;;5054792;28;20119;-75
2022/08/12 07:20:08;;;;;;;4.82;2.22;;;26.20;53.50;;;;;;5054707;28;20021;-75
2022/08/12 07:22:34;;;;;;;9.68;2.28;;;26.30;54.40;;;;;;5054843;28;20032;-75
2022/08/12 07:27:45;;;;;;;4.55;1.92;;;26.50;53.00;;;;;;5054857;28;20032;-74
2022/08/12 07:30:11;;;;;;;6.80;3.22;;;26.50;53.00;;;;;;5054134;28;20512;-74
2022/08/12 07:32:37;;;;;;;7.03;3.40;;;26.60;53.00;;;;;;5054327;28;20120;-74
2022/08/12 07:35:04;;;;;;;8.48;2.75;;;26.70;52.20;;;;;;5054575;28;20021;-74
2022/08/12 07:37:30;;;;;;;5.70;2.53;;;26.80;52.40;;;;;;5054436;28;20560;-74
2022/08/12 07:39:57;;;;;;;7.32;3.30;;;27.00;51.40;;;;;;5054023;28;20053;-75
2022/08/12 07:42:22;;;;;;;4.78;2.63;;;27.20;51.40;;;;;;5054511;28;20048;-74
2022/08/12 07:44:49;;;;;;;3.17;2.30;;;27.20;51.80;;;;;;5054020;28;20440;-75
2022/08/12 07:47:15;;;;;;;11.15;3.10;;;27.30;51.50;;;;;;5054072;28;20468;-75
2022/08/12 07:49:40;;;;;;;6.85;2.50;;;27.50;52.40;;;;;;5054411;28;20028;-74
2022/08/12 07:52:06;;;;;;;6.53;1.80;;;27.60;52.50;;;;;;5053953;28;20535;-74
2022/08/12 07:54:32;;;;;;;5.47;1.90;;;27.70;52.30;;;;;;5054274;28;20028;-74
2022/08/12 07:56:57;;;;;;;5.68;2.10;;;27.80;51.70;;;;;;5053876;28;20021;-74
2022/08/12 07:59:23;;;;;;;7.88;1.90;;;27.90;50.90;;;;;;5053884;28;20098;-75
2022/08/12 08:01:52;;;;;;;10.23;1.80;;;28.00;50.90;;;;;;5054123;28;20021;-74
2022/08/12 08:05:00;;;;;;;5.97;1.88;;;28.10;50.40;;;;;;5054292;28;20017;-74
2022/08/12 08:07:08;;;;;;;5.78;1.63;;;28.20;50.60;;;;;;5053173;28;20037;-74
2022/08/12 08:09:33;;;;;;;6.25;1.80;;;28.20;50.00;;;;;;5053652;28;20096;-74
2022/08/12 08:14:43;;;;;;;5.43;1.77;;;28.30;50.80;;;;;;5053762;28;20032;-74
2022/08/12 08:17:10;;;;;;;7.18;1.85;;;28.30;50.00;;;;;;5053669;28;20376;-75
2022/08/12 08:19:35;;;;;;;5.10;1.75;;;28.40;49.70;;;;;;5053556;28;20029;-75
2022/08/12 08:22:01;;;;;;;4.43;1.58;;;28.50;48.90;;;;;;5053540;28;20032;-75
2022/08/12 08:24:27;;;;;;;5.82;1.42;;;28.60;49.10;;;;;;5053034;28;20527;-75
2022/08/12 08:26:55;;;;;;;6.68;2.22;;;28.80;48.90;;;;;;5053453;28;20469;-75
2022/08/12 08:29:22;;;;;;;8.15;2.40;;;28.90;49.80;;;;;;5053625;28;20025;-75
2022/08/12 08:31:53;;;;;;;5.00;1.88;;;28.90;50.00;;;;;;5053114;28;20519;-74
2022/08/12 08:34:19;;;;;;;3.65;1.88;;;29.00;49.70;;;;;;5053127;28;20490;-74
2022/08/12 08:36:45;;;;;;;8.90;2.40;;;29.10;48.60;;;;;;5053227;28;20384;-76
2022/08/12 08:39:15;;;;;;;8.48;2.05;;;29.20;48.80;;;;;;5053480;28;20082;-75
2022/08/12 08:44:28;;;;;;;4.03;2.17;;;29.20;48.70;;;;;;5053220;28;20056;-75
2022/08/12 08:46:54;;;;;;;7.45;2.38;;;29.30;48.10;;;;;;5053176;28;20384;-75
2022/08/12 08:49:21;;;;;;;6.75;2.20;;;29.40;48.00;;;;;;5052760;28;20096;-75
2022/08/12 08:51:47;;;;;;;5.00;2.53;;;29.70;47.70;;;;;;5053323;28;20369;-75
2022/08/12 08:54:13;;;;;;;5.05;2.03;;;29.70;47.90;;;;;;5053244;28;20106;-76
2022/08/12 08:56:43;;;;;;;7.72;2.28;;;29.80;46.60;;;;;;5052433;28;20372;-75
2022/08/12 08:59:12;;;;;;;4.63;1.80;;;29.90;47.80;;;;;;5052810;28;20111;-76
2022/08/12 09:01:39;;;;;;;7.40;2.05;;;30.10;47.80;;;;;;5053073;28;20033;-75
2022/08/12 09:04:06;;;;;;;5.97;1.80;;;30.20;45.50;;;;;;5052852;28;20025;-76
2022/08/12 09:06:32;;;;;;;5.18;1.50;;;30.30;46.10;;;;;;5052941;28;20025;-75
2022/08/12 09:08:57;;;;;;;7.20;1.15;;;30.40;44.50;;;;;;5052788;28;20032;-75
2022/08/12 09:14:08;;;;;;;7.43;1.50;;;30.60;44.90;;;;;;5053009;28;20032;-75
2022/08/12 09:16:37;;;;;;;3.92;1.27;;;30.80;43.70;;;;;;5053079;28;20033;-75
2022/08/12 09:19:04;;;;;;;5.30;1.20;;;30.80;42.30;;;;;;5052859;28;20024;-75
2022/08/12 09:21:31;;;;;;;2.95;1.10;;;30.90;42.50;;;;;;5052846;28;20155;-75
2022/08/12 09:24:00;;;;;;;7.35;1.10;;;30.80;43.70;;;;;;5052730;28;20420;-75
2022/08/12 09:26:27;;;;;;;3.15;1.20;;;30.90;43.10;;;;;;5052800;28;20392;-75
2022/08/12 09:28:53;;;;;;;5.70;1.15;;;31.10;42.60;;;;;;5052462;28;20029;-75
2022/08/12 09:31:19;;;;;;;9.73;1.38;;;31.20;42.20;;;;;;5052647;28;20583;-75
2022/08/12 09:33:45;;;;;;;4.07;1.10;;;31.30;40.80;;;;;;5052598;28;20037;-75
2022/08/12 09:36:12;;;;;;;3.28;1.13;;;31.40;40.30;;;;;;5052881;28;20021;-75
2022/08/12 09:38:38;;;;;;;3.10;1.10;;;31.50;40.90;;;;;;5052647;28;20017;-75
2022/08/12 09:41:04;;;;;;;4.72;1.20;;;31.50;40.80;;;;;;5052479;28;20430;-75
2022/08/12 09:46:15;;;;;;;6.18;1.40;;;31.70;41.80;;;;;;5052260;28;20028;-75
2022/08/12 09:48:41;;;;;;;3.17;1.40;;;31.80;41.30;;;;;;5052567;28;20029;-75
2022/08/12 09:51:07;;;;;;;4.93;1.35;;;31.80;39.70;;;;;;5052149;28;20047;-75
2022/08/12 09:53:33;;;;;;;3.50;1.02;;;31.80;38.90;;;;;;5052353;28;20032;-75
2022/08/12 09:56:01;;;;;;;3.83;0.93;;;31.80;38.90;;;;;;5052121;28;20021;-75
2022/08/12 09:58:28;;;;;;;2.47;1.17;;;31.90;39.20;;;;;;5052716;28;20096;-75
2022/08/12 10:01:01;;;;;;;2.72;0.88;;;32.10;39.00;;;;;;5052210;28;20082;-75
2022/08/12 10:03:36;;;;;;;3.85;1.20;;;32.30;38.50;;;;;;5052539;28;20105;-75
2022/08/12 10:06:06;;;;;;;3.05;1.40;;;32.40;39.00;;;;;;5052540;28;20028;-75
2022/08/12 10:08:34;;;;;;;5.88;1.08;;;32.40;38.90;;;;;;5055617;28;20029;-75
2022/08/12 10:13:48;;;;;;;3.00;1.35;;;32.50;38.90;;;;;;5056027;28;20074;-75
2022/08/12 10:16:17;;;;;;;3.53;1.17;;;32.60;39.00;;;;;;5055981;28;20025;-75
2022/08/12 10:19:04;;;;;;;5.22;1.08;;;32.60;39.40;;;;;;5055997;28;20036;-75
2022/08/12 10:21:35;;;;;;;3.25;1.30;;;32.80;39.30;;;;;;5056061;28;20107;-75
2022/08/12 10:24:05;;;;;;;3.15;1.23;;;32.70;38.20;;;;;;5055511;28;20179;-76
2022/08/12 10:32:16;;;;;;;3.03;1.20;;;32.80;37.80;;;;;;5055716;28;20040;-76
2022/08/12 10:34:42;;;;;;;3.33;1.15;;;32.90;38.50;;;;;;5055745;28;20052;-76
2022/08/12 10:37:08;;;;;;;1.48;1.00;;;33.00;38.90;;;;;;5055551;28;20032;-76
2022/08/12 10:39:38;;;;;;;2.50;0.82;;;33.00;38.40;;;;;;5055154;28;20017;-76
2022/08/12 10:44:59;;;;;;;4.97;1.20;;;33.10;38.20;;;;;;5055722;28;20036;-76
2022/08/12 10:47:29;;;;;;;4.53;1.17;;;33.10;38.50;;;;;;5055471;28;20063;-76
2022/08/12 10:49:55;;;;;;;2.80;1.02;;;33.20;37.50;;;;;;5055022;28;20128;-76
2022/08/12 10:52:24;;;;;;;6.45;1.30;;;33.20;38.10;;;;;;5054980;28;20032;-76
2022/08/12 10:54:50;;;;;;;7.05;1.13;;;33.40;37.20;;;;;;5054956;28;20541;-76
2022/08/12 10:57:17;;;;;;;2.35;1.13;;;33.40;38.00;;;;;;5055262;28;20036;-76
2022/08/12 10:59:43;;;;;;;3.00;1.10;;;33.50;37.70;;;;;;5054670;28;20021;-76
2022/08/12 11:02:12;;;;;;;2.70;1.08;;;33.60;37.80;;;;;;5055005;28;20045;-76
2022/08/12 11:04:39;;;;;;;2.30;1.10;;;33.60;37.60;;;;;;5054925;28;20388;-76
2022/08/12 11:07:06;;;;;;;2.75;1.23;;;33.50;37.30;;;;;;5055047;28;20036;-76
2022/08/12 11:09:33;;;;;;;3.85;0.98;;;33.50;36.90;;;;;;5054873;28;20096;-76
2022/08/12 11:12:05;;;;;;;1.40;0.95;;;33.60;37.30;;;;;;5054665;28;20064;-76
2022/08/12 11:14:35;;;;;;;4.80;1.13;;;33.70;37.00;;;;;;5054867;28;20032;-76
2022/08/12 11:17:06;;;;;;;5.90;1.17;;;33.60;37.00;;;;;;5054645;28;20057;-76
2022/08/12 11:19:34;;;;;;;5.32;1.10;;;33.60;36.70;;;;;;5053799;28;20071;-77
2022/08/12 11:21:59;;;;;;;2.75;1.10;;;33.60;36.50;;;;;;5054829;28;20037;-76
2022/08/12 11:24:25;;;;;;;4.82;1.13;;;33.60;37.50;;;;;;5054418;28;20544;-76
2022/08/12 11:26:53;;;;;;;5.85;1.25;;;33.60;36.80;;;;;;5054370;28;20044;-76
2022/08/12 11:29:20;;;;;;;2.78;1.00;;;33.60;37.40;;;;;;5054470;28;20021;-76
2022/08/12 11:31:46;;;;;;;5.60;1.08;;;33.60;37.70;;;;;;5054248;28;20231;-76
2022/08/12 11:34:12;;;;;;;3.80;2.00;;;33.70;38.10;;;;;;5054501;28;20111;-76
2022/08/12 11:36:49;;;;;;;6.50;1.27;;;33.90;37.50;;;;;;5054334;28;20489;-76
2022/08/12 11:39:14;;;;;;;4.95;1.10;;;34.00;36.30;;;;;;5053941;28;20495;-76
2022/08/12 11:41:40;;;;;;;6.47;1.05;;;34.00;36.90;;;;;;5054172;28;20033;-76
2022/08/12 11:44:05;;;;;;;2.40;1.23;;;34.10;36.90;;;;;;5054258;28;20025;-76
2022/08/12 11:46:35;;;;;;;2.78;1.20;;;34.20;36.90;;;;;;5053738;28;20030;-76
2022/08/12 11:49:01;;;;;;;5.20;1.10;;;34.30;36.30;;;;;;5054067;28;20032;-76
2022/08/12 11:51:26;;;;;;;4.93;1.10;;;34.40;36.70;;;;;;5053912;28;20033;-76
2022/08/12 11:53:52;;;;;;;5.72;1.13;;;34.50;36.60;;;;;;5053903;28;20459;-76
2022/08/12 11:56:17;;;;;;;4.93;1.40;;;34.50;36.20;;;;;;5054076;28;20021;-76
2022/08/12 11:58:43;;;;;;;7.22;1.00;;;34.40;36.90;;;;;;5053665;28;20063;-76
2022/08/12 12:01:09;;;;;;;2.10;0.90;;;34.30;37.10;;;;;;5053876;28;20033;-76
2022/08/12 12:03:34;;;;;;;2.05;0.90;;;34.40;37.30;;;;;;5053988;28;20029;-76
2022/08/12 12:06:00;;;;;;;3.50;0.90;;;34.40;36.20;;;;;;5054029;28;20021;-76
2022/08/12 12:08:26;;;;;;;2.55;1.00;;;34.50;36.70;;;;;;5054108;28;20025;-76
2022/08/12 12:10:52;;;;;;;2.58;1.13;;;34.60;36.40;;;;;;5053578;28;20029;-76
2022/08/12 12:13:19;;;;;;;5.07;0.95;;;34.70;36.40;;;;;;5053880;28;20037;-76
2022/08/12 12:15:46;;;;;;;4.70;1.02;;;34.80;36.50;;;;;;5053305;28;20021;-76
2022/08/12 12:18:22;;;;;;;3.95;1.13;;;34.90;36.80;;;;;;5053798;28;20384;-76
2022/08/12 12:20:48;;;;;;;3.33;1.10;;;35.00;36.90;;;;;;5053874;28;20025;-76
2022/08/12 12:23:13;;;;;;;5.57;1.33;;;35.20;36.60;;;;;;5053313;28;20021;-76
2022/08/12 12:25:39;;;;;;;3.55;1.10;;;35.30;36.50;;;;;;5053498;28;20487;-76
2022/08/12 12:28:05;;;;;;;5.65;1.27;;;35.40;36.10;;;;;;5053404;28;20032;-76
2022/08/12 12:30:31;;;;;;;5.53;1.35;;;35.40;36.20;;;;;;5052528;28;20159;-76
2022/08/12 12:32:57;;;;;;;5.80;1.10;;;35.40;35.90;;;;;;5053167;28;20083;-76
2022/08/12 12:35:23;;;;;;;5.13;1.00;;;35.40;36.00;;;;;;5053466;28;20103;-77
2022/08/12 12:37:56;;;;;;;2.58;1.10;;;35.20;35.90;;;;;;5053309;28;20080;-77
2022/08/12 12:40:23;;;;;;;4.03;1.10;;;35.30;36.10;;;;;;5053100;28;20090;-77
2022/08/12 12:42:49;;;;;;;5.68;1.20;;;35.50;35.70;;;;;;5053236;28;20473;-77
2022/08/12 12:45:16;;;;;;;2.92;1.50;;;35.50;36.10;;;;;;5053168;28;20032;-77
2022/08/12 12:47:58;;;;;;;3.17;1.15;;;35.30;36.00;;;;;;5053465;28;20026;-77
2022/08/12 12:50:24;;;;;;;;;;;35.10;35.70;;;;;;5053322;28;20024;-77
2022/08/12 12:52:50;;;;;;;4.85;1.00;;;35.00;36.20;;;;;;5053158;28;20363;-77
2022/08/12 12:55:17;;;;;;;8.32;1.30;;;35.30;36.40;;;;;;5053285;28;20039;-77
2022/08/12 12:57:44;;;;;;;4.80;1.20;;;35.50;35.70;;;;;;5053113;28;20490;-77
2022/08/12 13:00:13;;;;;;;5.13;1.00;;;35.40;35.50;;;;;;5052992;28;20036;-77
2022/08/12 13:02:39;;;;;;;3.15;0.90;;;35.40;34.90;;;;;;5052880;28;20492;-77
2022/08/12 13:05:06;;;;;;;3.38;0.82;;;35.30;35.10;;;;;;5053014;28;20037;-77
2022/08/12 13:07:39;;;;;;;6.25;1.00;;;35.30;34.90;;;;;;5053020;28;20100;-77
2022/08/12 13:10:05;;;;;;;4.25;1.05;;;35.20;35.40;;;;;;5053021;28;20108;-77
2022/08/12 13:12:32;;;;;;;4.70;1.10;;;35.20;35.60;;;;;;5052867;28;20037;-77
2022/08/12 13:14:58;;;;;;;3.50;1.20;;;35.40;36.10;;;;;;5053108;28;20029;-77
2022/08/12 13:17:24;;;;;;;4.38;1.00;;;35.50;35.10;;;;;;5052834;28;20025;-77
2022/08/12 13:19:49;;;;;;;4.00;0.90;;;35.70;35.40;;;;;;5052674;28;20067;-77
2022/08/12 13:22:19;;;;;;;6.05;0.80;;;35.90;35.30;;;;;;5053005;28;20075;-77
2022/08/12 13:24:45;;;;;;;9.70;1.30;;;36.00;34.10;;;;;;5052493;28;20053;-77
2022/08/12 13:27:11;;;;;;;3.92;0.98;;;35.70;34.30;;;;;;5052761;28;20163;-77
2022/08/12 13:29:37;;;;;;;5.43;1.13;;;35.60;34.90;;;;;;5052262;28;20055;-77
2022/08/12 13:32:04;;;;;;;4.35;1.08;;;35.70;34.40;;;;;;5052698;28;20438;-77
2022/08/12 13:34:31;;;;;;;5.15;0.88;;;35.70;34.80;;;;;;5052729;28;20033;-77
2022/08/12 13:36:57;;;;;;;3.03;0.98;;;35.70;35.10;;;;;;5052901;28;20044;-77
2022/08/12 13:39:23;;;;;;;2.58;1.10;;;35.90;35.30;;;;;;5052785;28;20021;-77
2022/08/12 13:41:50;;;;;;;1.75;0.90;;;35.90;34.20;;;;;;5053258;28;20373;-77
2022/08/12 13:44:16;;;;;;;5.60;1.02;;;35.70;33.50;;;;;;5056584;28;20032;-77
2022/08/12 13:46:41;;;;;;;6.07;1.20;;;35.60;34.60;;;;;;5056552;28;20029;-77
2022/08/12 13:49:12;;;;;;;3.03;1.08;;;35.60;34.20;;;;;;5056295;28;20048;-77
2022/08/12 13:51:41;;;;;;;4.10;0.90;;;35.70;34.50;;;;;;5056227;28;20039;-77
2022/08/12 13:54:08;;;;;;;1.40;1.00;;;35.90;34.50;;;;;;5056419;28;20051;-77
2022/08/12 13:56:34;;;;;;;1.90;0.85;;;35.90;33.80;;;;;;5056535;28;20035;-77
2022/08/12 13:59:00;;;;;;;3.25;1.00;;;35.90;34.00;;;;;;5056097;28;20100;-77
2022/08/12 14:01:26;;;;;;;2.35;0.98;;;35.90;34.00;;;;;;5056080;28;20029;-77
2022/08/12 14:03:52;;;;;;;2.67;1.05;;;36.00;34.00;;;;;;5056280;28;20052;-76
2022/08/12 14:06:19;;;;;;;3.88;1.08;;;35.90;33.50;;;;;;5055941;28;20040;-76
2022/08/12 14:08:47;;;;;;;6.65;1.08;;;35.90;33.90;;;;;;5056262;28;20021;-76
2022/08/12 14:11:13;;;;;;;5.88;1.10;;;35.80;33.60;;;;;;5056278;28;20047;-77
2022/08/12 14:13:41;;;;;;;3.60;1.05;;;36.00;34.10;;;;;;5056053;28;20024;-76
2022/08/12 14:16:11;;;;;;;2.45;1.13;;;36.00;33.80;;;;;;5056177;28;20029;-77
2022/08/12 14:18:38;;;;;;;3.83;0.90;;;36.00;33.20;;;;;;5055972;28;20032;-77
2022/08/12 14:21:09;;;;;;;6.68;1.00;;;36.00;33.20;;;;;;5056126;28;20057;-76
2022/08/12 14:23:37;;;;;;;6.00;1.10;;;35.90;33.20;;;;;;5055889;28;20052;-76
2022/08/12 14:26:05;;;;;;;2.28;0.90;;;35.90;33.90;;;;;;5055580;28;20392;-76
2022/08/12 14:28:33;;;;;;;1.98;0.90;;;35.90;33.60;;;;;;5055700;28;20513;-76
2022/08/12 14:31:02;;;;;;;3.50;0.80;;;35.90;34.00;;;;;;5055348;28;20035;-76
2022/08/12 14:33:34;;;;;;;3.38;0.90;;;35.90;34.10;;;;;;5055575;28;20025;-76
2022/08/12 14:36:03;;;;;;;4.13;0.80;;;36.10;33.80;;;;;;5055844;28;20094;-76
2022/08/12 14:38:38;;;;;;;2.58;0.80;;;36.00;33.70;;;;;;5055333;28;20353;-76
2022/08/12 14:41:09;;;;;;;3.63;0.90;;;36.00;33.30;;;;;;5055463;28;20021;-76
2022/08/12 14:43:39;;;;;;;3.63;0.77;;;35.90;33.20;;;;;;5055052;28;20381;-76
2022/08/12 14:46:11;;;;;;;3.38;0.60;;;35.90;33.50;;;;;;5055639;28;20064;-76
2022/08/12 14:48:43;;;;;;;2.30;0.90;;;35.90;33.70;;;;;;5055438;28;20025;-76